Sonic Adventure (DX): Overall Rankings

Records: Times | Rings | Scores | Races | Bosses | Freestyle
Leaders: Times | Rings | Scores | Races | Bosses | Freestyle | Overall
Rank Player Percent Points Order Asc Date
1 Sonicspeedruner 98.2% 294 04-28-16
2 Gamepro011 98.1% 308 04-28-16
3 DarkPolarNight 96.1% 641 04-28-16
4 Jawzun 93.4% 1092 04-28-16
5 Dashjump 92.0% 1328 04-28-16
6 DarkspinesSonic 90.3% 1623 04-28-16
7 Avento128bits 89.9% 1678 04-28-16
8 ike6252 89.8% 1705 04-28-16
9 F-Man 87.9% 2017 04-28-16
10 HyperSonic7701 84.6% 2565 04-28-16
11 Coolfansonic 84.6% 2568 04-28-16
12 yoshifan 83.0% 2848 04-28-16
13 frankoredstrato 82.6% 2910 04-28-16
14 francisco 81.7% 3060 04-28-16
15 TheRealShadnic 81.7% 3062 04-28-16
16 Marth 81.3% 3125 04-28-16
17 InferSaime 80.1% 3329 04-28-16
18 PfoSonic 79.6% 3407 04-28-16
19 Paragod 79.2% 3471 04-28-16
20 THC98 78.2% 3647 04-28-16
21 Dawid8404 77.9% 3699 04-28-16
22 Stefan 75.9% 4024 04-28-16
23 RPGnutter 73.8% 4389 04-28-16
24 bertin 73.6% 4414 04-28-16
25 sonicam 71.4% 4783 04-28-16
26 drminus 70.2% 4992 04-28-16
27 Combo 65.5% 5780 04-28-16
28 SkyLights 64.3% 5966 04-28-16
29 xXMegaManXx 63.5% 6100 04-28-16
30 Diamond 62.5% 6278 04-28-16
31 Auriman1 60.1% 6670 04-28-16
31 GerbilSoft 60.1% 6670 04-28-16
33 OmegaDJ 60.1% 6671 04-28-16
34 magnum12 59.2% 6827 04-28-16
35 Thorn 57.2% 7171 04-28-16
36 P1 Pause 56.9% 7206 04-28-16
37 mike89 56.0% 7363 04-28-16
38 chainchumper 54.0% 7698 04-28-16
39 Dave Cramer 54.0% 7699 04-28-16
40 Groudon199 54.0% 7704 04-28-16
41 Parax 53.2% 7842 04-28-16
42 Shadow Jacky 52.8% 7899 04-28-16
43 Psymar 47.7% 8760 04-28-16
44 Arch 46.1% 9022 04-28-16
45 Chao_Fan 46.1% 9031 04-28-16
46 mauserman 45.4% 9143 04-28-16
47 Quartz 44.9% 9222 04-28-16
48 teamblackarms 44.0% 9382 04-28-16
49 Psyknux 43.4% 9474 04-28-16
50 James_Bertolli 43.1% 9535 04-28-16
51 NintenDan 42.8% 9585 04-28-16
52 Webber3000 42.1% 9691 04-28-16
53 Turbos 42.0% 9710 04-28-16
54 Ring Rush 41.8% 9753 04-28-16
55 Cream147 41.7% 9764 04-28-16
56 videogamemaster777 41.5% 9796 04-28-16
57 Fr3nZy 41.4% 9811 04-28-16
58 Siavash Tazari 41.1% 9855 04-28-16
59 buddychaos0415 40.7% 9922 04-28-16
60 SadisticMystic 40.0% 10043 04-28-16
61 eggFL 39.3% 10161 04-28-16
62 Redd 38.8% 10252 04-28-16
63 SB737 37.9% 10401 04-28-16
64 supersonic465 37.0% 10551 04-28-16
65 supersonicfan 36.6% 10608 04-28-16
66 FuzZerd 35.5% 10802 04-28-16
67 elecmouse101 34.7% 10932 04-28-16
68 Austinf 33.6% 11114 04-28-16
69 metanightmare22 33.4% 11156 04-28-16
70 Aitamen 33.0% 11214 04-28-16
71 dabestgamer 33.0% 11220 04-28-16
72 Cyan Ryan 32.9% 11235 04-28-16
73 MiStEr_ShAoLiN 32.9% 11243 04-28-16
74 Andrea Ritsu 31.9% 11402 04-28-16
75 itsPersonnal 31.8% 11421 04-28-16
76 Cybrax 31.0% 11556 04-28-16
77 SilvertheAlmighty 30.8% 11584 04-28-16
78 danieldude 30.7% 11600 04-28-16
79 VMU Player Banned 29.0% 11896 04-28-16
80 Staf 28.5% 11966 04-28-16
81 Omega Rafael Santos 28.5% 11980 04-28-16
82 The T 28.2% 12027 04-28-16
83 EngiNerd 27.9% 12082 04-28-16
84 lordmetalsonic 27.3% 12168 04-28-16
85 Hipertails12 26.9% 12240 04-28-16
86 welldooder64 26.8% 12266 04-28-16
87 GreatStar 26.5% 12312 04-28-16
88 Sondow 26.4% 12327 04-28-16
89 The Great Lord Mick 26.3% 12340 04-28-16
90 Mastakirby 26.2% 12365 04-28-16
91 LinksDarkArrows 26.1% 12372 04-28-16
92 Nimrod 25.8% 12430 04-28-16
93 Skylace 25.2% 12534 04-28-16
94 Rolken 23.7% 12772 04-28-16
95 Xia 22.0% 13057 04-28-16
96 Kogen Player Banned 22.0% 13060 04-28-16
97 a_moustache 22.0% 13064 04-28-16
98 Spinballwizard 21.9% 13080 04-28-16
99 Don 21.5% 13150 04-28-16
100 f0rever_zer0 21.5% 13154 04-28-16
101 Twilisailor 21.4% 13157 04-28-16
102 Cutiefox 21.3% 13177 04-28-16
103 Game_Complete 21.2% 13191 04-28-16
104 Miles9999 21.2% 13198 04-28-16
105 andres430 20.7% 13280 04-28-16
106 Cruizer 20.5% 13317 04-28-16
107 iSonicKid2K 20.3% 13342 04-28-16
108 SADXTryHard 20.0% 13392 04-28-16
109 GarnetPrincess 19.6% 13465 04-28-16
110 AxlThunder 18.9% 13579 04-28-16
111 knuckles_sonic8 18.6% 13626 04-28-16
112 KinkyCadence 18.2% 13695 04-28-16
113 The Knuckles Chao 18.1% 13716 04-28-16
114 Team_Yoshi 18.1% 13718 04-28-16
115 Termon 17.8% 13769 04-28-16
116 LittleBigness 17.7% 13777 04-28-16
117 FoxBoy 17.7% 13788 04-28-16
118 SonicWinDX 17.5% 13810 04-28-16
119 Drakodan 16.8% 13936 04-28-16
120 Sonic Singularity 15.7% 14121 04-28-16
121 Pokemonmaster888 15.6% 14131 04-28-16
122 BigAL49 14.6% 14302 04-28-16
123 SilverSonic 14.4% 14333 04-28-16
124 MPit08 14.4% 14341 04-28-16
125 WeegeeZV 14.2% 14368 04-28-16
126 Mo Player Banned 14.0% 14400 04-28-16
127 koinu93 13.9% 14423 04-28-16
128 Cod4Scopes 13.6% 14476 04-28-16
129 HyperSonic64 13.5% 14483 04-28-16
130 booo95 13.4% 14502 04-28-16
131 Jerzia 13.4% 14503 04-28-16
132 Chawkk 13.2% 14537 04-28-16
133 paulie9990 13.1% 14555 04-28-16
134 SuperSonic101 13.0% 14573 04-28-16
135 Hunters13 13.0% 14574 04-28-16
136 Maxinfamily 12.8% 14602 04-28-16
137 Kanimayo_Jp 12.6% 14646 04-28-16
138 BrokenArthritis 12.4% 14668 04-28-16
139 LilZero 12.4% 14672 04-28-16
139 PsyBorg 12.4% 14672 04-28-16
141 Flying Fox 12.4% 14673 04-28-16
142 Therio 11.9% 14757 04-28-16
143 sonicspeed 11.8% 14766 04-28-16
144 douglas 11.7% 14785 04-28-16
145 thewaytodawnnn 11.3% 14859 04-28-16
146 Matt_TY 11.3% 14861 04-28-16
147 Cooljay 10.7% 14959 04-28-16
148 joecoolgames 10.6% 14968 04-28-16
149 SeaWolf 10.6% 14977 04-28-16
150 videogamer1014 10.3% 15027 04-28-16
151 AC-Tygo 10.0% 15071 04-28-16
152 welshmoose05 10.0% 15077 04-28-16
153 TFEC Headshot 9.9% 15095 04-28-16
154 crazy1993 9.8% 15111 04-28-16
155 OddCook 9.7% 15120 04-28-16
156 Mcshuggets 9.6% 15142 04-28-16
157 niscool 9.3% 15193 04-28-16
158 imazor017 9.3% 15194 04-28-16
159 Mariobutch 9.2% 15211 04-28-16
160 nuckrieg 9.1% 15231 04-28-16
161 SonicAD 9.0% 15238 04-28-16
162 SirTobbii 8.9% 15265 04-28-16
163 Shadowthegreat 8.8% 15267 04-28-16
164 superjupi 8.8% 15273 04-28-16
165 iarebored 8.5% 15324 04-28-16
166 sonamyfan666 8.5% 15327 04-28-16
167 SaviourDC 8.5% 15328 04-28-16
168 SonicKnuckles 8.3% 15351 04-28-16
169 Werey 8.3% 15364 04-28-16
170 adf 8.0% 15406 04-28-16
171 SuperBlitzCraig 7.9% 15429 04-28-16
172 Megaman EXE565 7.8% 15445 04-28-16
173 ArcticDragon 7.7% 15454 04-28-16
174 Platformer 7.5% 15499 04-28-16
175 FocusSight64 7.4% 15516 04-28-16
176 ethmar 7.3% 15528 04-28-16
177 wheatrich 7.3% 15529 04-28-16
178 timpkmn89 7.3% 15534 04-28-16
179 Swift Hobo 7.2% 15535 04-28-16
180 Rickyman48 7.1% 15562 04-28-16
181 KitsuneYamaro 6.8% 15608 04-28-16
182 Triseena 6.7% 15623 04-28-16
183 CyberShadow 6.5% 15655 04-28-16
184 slade23 6.4% 15673 04-28-16
185 Starlight Sable 6.4% 15676 04-28-16
186 dShadow 6.3% 15690 04-28-16
187 IsisDazs 6.3% 15695 04-28-16
188 BlankTH 6.0% 15742 04-28-16
189 Monkeh 5.9% 15762 04-28-16
190 Richied 5.7% 15794 04-28-16
191 DaDude 5.6% 15804 04-28-16
191 SonicU260 5.6% 15804 04-28-16
193 Vicklaw 5.6% 15808 04-28-16
194 sonicd5 5.5% 15820 04-28-16
195 Zip 5.5% 15836 04-28-16
196 VeritasDL 5.1% 15888 04-28-16
197 Kirbymon30 5.1% 15892 04-28-16
198 tal39h 5.1% 15896 04-28-16
199 soniccoloursunleashed 4.8% 15937 04-28-16
200 Drflash55 4.8% 15945 04-28-16
201 Bass 4.7% 15963 04-28-16
202 Yish 4.7% 15965 04-28-16
203 neaolas 4.6% 15974 04-28-16
204 UninspiredUsername 4.6% 15986 04-28-16
205 zapp 4.6% 15987 04-28-16
206 Sonicsuperstar1 4.5% 15989 04-28-16
207 superiorsonic 4.5% 15995 04-28-16
208 Badlex727 4.4% 16005 04-28-16
209 gamefreak1292 4.4% 16007 04-28-16
210 Chaos_Overlord 4.1% 16058 04-28-16
211 TakaRikka 4.0% 16073 04-28-16
212 Valfore 3.9% 16090 04-28-16
213 ShinigamiMachine 3.8% 16110 04-28-16
214 Regano1000 3.7% 16122 04-28-16
215 MK 3.6% 16144 04-28-16
216 Ace747 3.5% 16158 04-28-16
217 Illidan 3.2% 16210 04-28-16
218 HHNNBBHHN 3.2% 16220 04-28-16
219 Venick409 3.1% 16227 04-28-16
220 Brian_pso 3.1% 16230 04-28-16
221 nman36 3.1% 16235 04-28-16
222 Sithwarrior26 3.1% 16237 04-28-16
223 Egor305 2.9% 16257 04-28-16
223 ingx24 2.9% 16257 04-28-16
225 TheChaosEmeraIds 2.9% 16264 04-28-16
226 SkyBon 2.9% 16271 04-28-16
226 Nickson98 2.9% 16271 04-28-16
228 FSSRandomvids 2.8% 16286 04-28-16
229 Fozer 2.7% 16289 04-28-16
230 sonic29887 2.7% 16301 04-28-16
231 Colomb_30 2.7% 16305 04-28-16
231 Wanamaker 2.7% 16305 04-28-16
233 dekki1234 2.6% 16308 04-28-16
234 Aiko 2.6% 16311 04-28-16
235 TheUltraBlur 2.6% 16312 04-28-16
236 1stKirbyever 2.6% 16317 04-28-16
237 TimTH 2.5% 16326 04-28-16
238 Th4tN1nj4Turtl3 2.3% 16358 04-28-16
238 Cort_pso 2.3% 16358 04-28-16
240 Doom-9 2.3% 16369 04-28-16
241 ieatatsonic 2.2% 16373 04-28-16
242 Mariosonic15 2.2% 16377 04-28-16
243 SonataSpinDash 2.2% 16381 04-28-16
244 MStitomix 2.1% 16390 04-28-16
245 HermitHelmet 2.1% 16397 04-28-16
246 SuperSonic71087 2.1% 16402 04-28-16
247 Got4n 2.0% 16409 04-28-16
248 Artie 2.0% 16415 04-28-16
249 Questionguy555 2.0% 16421 04-28-16
249 Jose_15 2.0% 16421 04-28-16
251 SuperSonicfan9595 1.8% 16442 04-28-16
252 djmat 1.8% 16445 04-28-16
253 sonicandamy 1.7% 16460 04-28-16
254 LancexExWx 1.7% 16465 04-28-16
255 son1cgu1tar 1.7% 16469 04-28-16
256 Paixii 1.7% 16471 04-28-16
257 Heroes_Hater 1.7% 16472 04-28-16
258 BallzeH 1.6% 16487 04-28-16
259 Jamixesa 1.5% 16496 04-28-16
260 BecauseWarAnvil 1.5% 16497 04-28-16
260 Mankster101 1.5% 16497 04-28-16
262 Crydio 1.5% 16504 04-28-16
263 SpiritDragon1995 1.4% 16514 04-28-16
264 Shanekilz 1.4% 16516 04-28-16
265 ReuelBrony 1.4% 16517 04-28-16
266 stanski 1.3% 16524 04-28-16
267 MarewBFN 1.3% 16527 04-28-16
268 Sonique Hedgehog 1.3% 16534 04-28-16
269 Blue Infamy 1.2% 16541 04-28-16
270 p0ker 1.2% 16542 04-28-16
271 ErrortheCucco 1.2% 16551 04-28-16
272 Rikum22 1.2% 16554 04-28-16
273 Arthas 1.1% 16559 04-28-16
274 sonic1001 1.1% 16563 04-28-16
275 WingedInsignia 1.1% 16569 04-28-16
276 AJSIV 1.1% 16570 04-28-16
277 syco1098 1.1% 16571 04-28-16
278 Sonic the Hedgehod16 1.0% 16575 04-28-16
279 sonicfan9 1.0% 16582 04-28-16
280 Calfd 1.0% 16584 04-28-16
281 BlackArmsShadow 0.9% 16592 04-28-16
282 themachoman202 0.9% 16596 04-28-16
283 shadowblast63 Player Banned 0.9% 16603 04-28-16
284 Greham Adelphis 0.9% 16604 04-28-16
285 Fivavoa 0.9% 16605 04-28-16
286 Mr. Jones 0.9% 16606 04-28-16
287 Ben1502 0.9% 16607 04-28-16
287 MastaToken 0.9% 16607 04-28-16
289 arcfx1985 0.8% 16609 04-28-16
289 darkstarblaze 0.8% 16609 04-28-16
291 ptorflaxendrosis 0.8% 16610 04-28-16
292 Gvozdevik 0.8% 16614 04-28-16
293 FlandreScarlet9999vr 0.8% 16616 04-28-16
293 Knuckles 0.8% 16616 04-28-16
295 Zeldocto 0.8% 16619 04-28-16
296 BeeAwwb 0.8% 16623 04-28-16
297 KaM Mark MaK 0.7% 16626 04-28-16
298 ShadouZaHejjihoggu 0.7% 16631 04-28-16
299 Sonic62 0.7% 16637 04-28-16
300 Sonic The Star 0.7% 16638 04-28-16
301 darkersupershadic 0.7% 16639 04-28-16
302 dragondragon18 0.6% 16642 04-28-16
303 SonicK100 0.6% 16643 04-28-16
304 Shadygamerfreak 0.6% 16644 04-28-16
304 Sogeking 0.6% 16644 04-28-16
306 Grady219 0.6% 16645 04-28-16
307 Sarger001 0.6% 16646 04-28-16
308 Jawaah 0.6% 16650 04-28-16
309 Antek 0.6% 16655 04-28-16
310 Klaus 0.6% 16657 04-28-16
311 SilverK 0.5% 16658 04-28-16
312 BioShadow 0.5% 16663 04-28-16
312 SpinDashMaster 0.5% 16663 04-28-16
314 Videogamer123 0.5% 16666 04-28-16
315 oTaiIilLsS 0.4% 16681 04-28-16
315 isaihtb11 0.4% 16681 04-28-16
317 OhNoes! 0.4% 16683 04-28-16
318 zaktu40 0.4% 16685 04-28-16
318 Mad Andy 0.4% 16685 04-28-16
320 S-MS32X-S 0.4% 16687 04-28-16
321 gaara1234 0.4% 16688 04-28-16
322 gamed00d 0.3% 16692 04-28-16
323 Mister_Slick 0.3% 16698 04-28-16
324 Sonic06Fan 0.3% 16702 04-28-16
325 Rush Hero 0.3% 16704 04-28-16
326 SonicMega167 0.2% 16709 04-28-16
326 Iwannabelink 0.2% 16709 04-28-16
328 sonknuck23 0.2% 16713 04-28-16
329 gamer1245 0.2% 16720 04-28-16
329 DanielTheFalcon 0.2% 16720 04-28-16
331 Burningskull123 0.1% 16728 04-28-16
332 Sonicontherun 0.1% 16738 04-28-16
333 Lil_Dude 0.0% 16742 04-28-16
334 antiwwe 0.0% 16744 04-28-16
335 Cbwade15 0.0% 16748 04-28-16
335 Genuine Hedgehog 0.0% 16748 04-28-16
337 Tyrouble 0.0% 16751 04-28-16
338 neji_hyuuga 0.0% 16758 04-28-16
338 MegabombBlade 0.0% 16758 04-28-16
338 Over 0.0% 16758 04-28-16
338 Tran Sonic Fan Player Banned 0.0% 16758 04-28-16
338 sdj6707 Player Banned 0.0% 16758 04-28-16

This page is using the New Data Table System. [FUTURE]

Game ID: 3 | Category ID: 10
Hits: 66,662 | Hits This Month: 247 | DB Calls: 21 | Mem Usage: 5.46 MB | Time: 0.47s | Printable

The Sonic Center v3.9
Copyright 2003-2011 by The Sonic Center Team.